createdAt,value
2022-11-22T00:00:08.351Z,80.94
2022-11-22T00:01:40.258Z,81.12
2022-11-22T00:03:12.223Z,81.27
2022-11-22T00:04:44.112Z,81.36
2022-11-22T00:06:16.039Z,81.49
2022-11-22T00:07:50.425Z,81.42
2022-11-22T00:09:22.422Z,81.22
2022-11-22T00:10:54.284Z,80.89
2022-11-22T00:12:26.118Z,80.90
2022-11-22T00:13:57.900Z,81.02
2022-11-22T00:15:30.135Z,80.78
2022-11-22T00:17:01.996Z,80.71
2022-11-22T00:18:33.931Z,80.43
2022-11-22T00:20:06.649Z,80.31
2022-11-22T00:21:38.680Z,80.23
2022-11-22T00:23:10.772Z,80.37
2022-11-22T00:24:42.656Z,79.89
2022-11-22T00:26:14.495Z,80.13
2022-11-22T00:27:46.406Z,80.19
2022-11-22T00:29:24.206Z,79.83
2022-11-22T00:30:56.097Z,80.22
2022-11-22T00:32:28.134Z,80.58
2022-11-22T00:33:59.932Z,80.54
2022-11-22T00:35:31.838Z,80.36
2022-11-22T00:37:03.626Z,80.89
2022-11-22T00:38:35.537Z,80.70
2022-11-22T00:41:42.175Z,80.56
2022-11-22T00:43:14.085Z,80.36
2022-11-22T00:44:45.966Z,80.31
2022-11-22T00:46:17.856Z,80.59
2022-11-22T00:47:49.699Z,80.20
2022-11-22T00:49:21.663Z,79.96
2022-11-22T00:50:53.591Z,80.14
2022-11-22T00:52:25.412Z,80.48
2022-11-22T00:53:57.239Z,80.47
2022-11-22T00:55:29.300Z,80.81
2022-11-22T00:57:01.300Z,81.00
2022-11-22T00:58:33.308Z,80.92
2022-11-22T01:00:08.821Z,81.12
2022-11-22T01:01:40.721Z,81.06
2022-11-22T01:03:13.240Z,80.97
2022-11-22T01:04:45.155Z,80.87
2022-11-22T01:06:16.977Z,80.93
2022-11-22T01:07:49.014Z,81.17
2022-11-22T01:09:21.448Z,81.17
2022-11-22T01:10:59.601Z,81.06
2022-11-22T01:12:31.482Z,81.18
2022-11-22T01:14:03.399Z,81.42
2022-11-22T01:15:35.704Z,81.51
2022-11-22T01:17:07.488Z,81.58
2022-11-22T01:18:39.485Z,81.84
2022-11-22T01:20:11.450Z,81.72
2022-11-22T01:21:43.332Z,82.18
2022-11-22T01:23:15.346Z,82.13
2022-11-22T01:24:47.852Z,82.26
2022-11-22T01:26:19.715Z,82.52
2022-11-22T01:27:51.532Z,82.63
2022-11-22T01:29:23.408Z,83.09
2022-11-22T01:30:55.472Z,83.01
2022-11-22T01:32:28.417Z,83.28
2022-11-22T01:34:00.364Z,82.96
2022-11-22T01:35:32.513Z,82.89
2022-11-22T01:37:04.379Z,82.50
2022-11-22T01:38:36.177Z,82.33
2022-11-22T01:40:08.464Z,82.20
2022-11-22T01:41:40.387Z,82.26
2022-11-22T01:43:14.984Z,82.11
2022-11-22T01:44:47.276Z,81.73
2022-11-22T01:46:23.589Z,81.63
2022-11-22T01:48:28.012Z,81.58
2022-11-22T01:50:01.412Z,81.57
2022-11-22T01:51:38.138Z,81.63
2022-11-22T01:53:12.027Z,81.51
2022-11-22T01:56:22.969Z,81.86
2022-11-22T01:57:54.771Z,82.20
2022-11-22T01:59:27.106Z,82.29
2022-11-22T02:00:59.289Z,82.26
2022-11-22T02:02:31.240Z,82.17
2022-11-22T02:04:03.480Z,82.17
2022-11-22T02:05:35.525Z,82.15
2022-11-22T02:07:07.420Z,82.17
2022-11-22T02:08:47.881Z,82.04
2022-11-22T02:10:19.830Z,82.07
2022-11-22T02:11:52.273Z,82.30
2022-11-22T02:13:24.285Z,82.17
2022-11-22T02:14:56.445Z,82.41
2022-11-22T02:16:28.335Z,82.39
2022-11-22T02:18:00.143Z,82.26
2022-11-22T02:19:43.350Z,82.15
2022-11-22T02:21:15.209Z,82.35
2022-11-22T02:22:58.811Z,82.33
2022-11-22T02:24:37.046Z,81.93
2022-11-22T02:26:08.968Z,81.63
2022-11-22T02:27:40.764Z,81.42
2022-11-22T02:30:51.089Z,81.65
2022-11-22T03:15:13.757Z,82.86
2022-11-22T03:16:46.104Z,82.66
2022-11-22T03:18:17.929Z,82.67
2022-11-22T03:19:49.842Z,82.25
2022-11-22T03:21:21.769Z,82.48
2022-11-22T03:22:53.676Z,82.57
2022-11-22T03:24:25.544Z,82.71
2022-11-22T03:25:57.559Z,82.72
2022-11-22T03:27:29.471Z,82.07
2022-11-22T03:29:01.421Z,81.62
2022-11-22T03:30:33.410Z,81.58
2022-11-22T03:32:08.126Z,81.63
2022-11-22T03:33:40.146Z,81.69
2022-11-22T03:35:12.052Z,82.03
2022-11-22T03:36:43.966Z,82.20
2022-11-22T03:38:15.797Z,82.16
2022-11-22T03:39:47.646Z,82.40
2022-11-22T03:41:19.498Z,82.38
2022-11-22T03:42:51.315Z,82.09
2022-11-22T03:44:23.621Z,82.11
2022-11-22T03:45:55.507Z,81.90
2022-11-22T03:47:27.311Z,82.15
2022-11-22T03:48:59.161Z,82.50
2022-11-22T03:50:31.082Z,82.54
2022-11-22T03:52:03.011Z,82.73
2022-11-22T03:53:34.863Z,82.78
2022-11-22T03:55:06.875Z,82.85
2022-11-22T03:56:38.744Z,82.86
2022-11-22T03:58:10.846Z,82.65
2022-11-22T03:59:42.683Z,82.56
2022-11-22T04:01:16.717Z,82.42
2022-11-22T04:02:48.905Z,82.40
2022-11-22T04:04:20.848Z,82.19
2022-11-22T04:05:52.738Z,82.07
2022-11-22T04:07:24.679Z,82.00
2022-11-22T04:08:56.745Z,81.73
2022-11-22T04:10:28.707Z,81.80
2022-11-22T04:12:00.584Z,81.77
2022-11-22T04:13:51.132Z,82.28
2022-11-22T04:15:23.130Z,82.32
2022-11-22T04:16:55.046Z,82.03
2022-11-22T04:18:26.914Z,82.01
2022-11-22T04:20:17.262Z,81.68
2022-11-22T04:21:49.173Z,81.83
2022-11-22T04:23:21.792Z,81.75
2022-11-22T04:25:15.662Z,81.80
2022-11-22T04:26:47.759Z,81.61
2022-11-22T04:28:40.488Z,81.57
2022-11-22T04:30:20.255Z,81.53
2022-11-22T04:32:11.495Z,81.95
2022-11-22T04:33:43.383Z,82.18
2022-11-22T04:35:16.108Z,82.25
2022-11-22T04:36:50.838Z,82.27
2022-11-22T04:38:22.789Z,82.48
2022-11-22T04:39:54.682Z,82.49
2022-11-22T04:41:26.556Z,82.66
2022-11-22T04:43:16.865Z,82.02
2022-11-22T04:44:48.832Z,82.24
2022-11-22T04:46:20.730Z,82.20
2022-11-22T04:48:01.411Z,82.22
2022-11-22T04:49:33.231Z,82.05
2022-11-22T04:51:23.926Z,82.13
2022-11-22T04:52:58.591Z,81.66
2022-11-22T04:54:30.529Z,81.96
2022-11-22T04:56:02.329Z,81.76
2022-11-22T04:57:34.171Z,81.65
2022-11-22T04:59:06.070Z,81.51
2022-11-22T05:00:38.288Z,81.77
2022-11-22T05:02:13.330Z,81.88
2022-11-22T05:03:45.169Z,82.15
2022-11-22T05:05:17.030Z,82.39
2022-11-22T05:06:48.930Z,82.37
2022-11-22T05:08:21.291Z,82.52
2022-11-22T05:09:53.096Z,82.51
2022-11-22T05:11:25.045Z,82.45
2022-11-22T05:12:57.037Z,82.11
2022-11-22T05:14:28.879Z,81.84
2022-11-22T05:16:01.313Z,81.99
2022-11-22T05:17:33.122Z,82.07
2022-11-22T05:19:05.102Z,81.81
2022-11-22T05:20:37.085Z,81.72
2022-11-22T05:22:08.935Z,81.75
2022-11-22T05:23:55.835Z,81.85
2022-11-22T05:25:28.329Z,81.64
2022-11-22T05:27:02.264Z,82.00
2022-11-22T05:28:34.999Z,81.91
2022-11-22T05:30:07.283Z,81.62
2022-11-22T05:31:39.686Z,81.60
2022-11-22T05:33:11.699Z,81.49
2022-11-22T05:34:43.618Z,81.34
2022-11-22T05:36:15.552Z,81.69
2022-11-22T05:37:48.740Z,81.97
2022-11-22T05:39:20.720Z,82.27
2022-11-22T05:40:52.635Z,82.18
2022-11-22T05:42:24.611Z,82.53
2022-11-22T05:43:57.092Z,82.28
2022-11-22T05:45:28.979Z,81.99
2022-11-22T05:47:00.851Z,82.45
2022-11-22T05:48:32.711Z,82.17
2022-11-22T05:50:04.936Z,82.19
2022-11-22T05:51:36.838Z,81.82
2022-11-22T05:53:08.773Z,81.95
2022-11-22T05:54:40.756Z,82.03
2022-11-22T05:56:13.494Z,82.29
2022-11-22T05:57:45.409Z,82.62
2022-11-22T05:59:17.349Z,82.73
2022-11-22T06:00:49.252Z,82.92
2022-11-22T06:02:21.449Z,83.29
2022-11-22T06:03:53.347Z,83.75
2022-11-22T06:05:25.278Z,84.00
2022-11-22T06:06:57.183Z,84.24
2022-11-22T06:08:32.363Z,84.47
2022-11-22T06:10:04.286Z,84.54
2022-11-22T06:11:36.260Z,84.67
2022-11-22T06:13:10.531Z,84.66
2022-11-22T06:14:43.677Z,84.70
2022-11-22T06:16:15.937Z,84.58
2022-11-22T06:17:48.012Z,84.48
2022-11-22T06:19:20.796Z,84.10
2022-11-22T06:20:52.668Z,84.02
2022-11-22T06:22:24.651Z,84.13
2022-11-22T06:23:56.607Z,84.13
2022-11-22T06:25:29.025Z,84.13
2022-11-22T06:27:00.929Z,83.90
2022-11-22T06:28:33.595Z,83.79
2022-11-22T06:30:05.739Z,84.21
2022-11-22T06:31:37.691Z,84.17
2022-11-22T06:33:09.552Z,84.49
2022-11-22T06:34:41.734Z,84.97
2022-11-22T06:36:13.824Z,84.94
2022-11-22T06:37:45.755Z,85.07
2022-11-22T06:39:17.907Z,85.37
2022-11-22T06:40:49.870Z,85.55
2022-11-22T06:42:21.766Z,85.62
2022-11-22T06:43:54.304Z,85.84
2022-11-22T06:45:26.561Z,86.00
2022-11-22T06:46:58.573Z,85.68
2022-11-22T06:48:30.875Z,85.87
2022-11-22T06:50:02.889Z,85.80
2022-11-22T06:51:34.815Z,85.42
2022-11-22T06:53:06.667Z,85.30
2022-11-22T06:54:38.627Z,84.81
2022-11-22T06:56:13.324Z,84.45
2022-11-22T06:57:47.260Z,84.36
2022-11-22T06:59:19.254Z,84.50
2022-11-22T07:00:51.191Z,84.33
2022-11-22T07:02:23.170Z,84.21
2022-11-22T07:03:58.974Z,84.30
2022-11-22T07:05:31.047Z,84.06
2022-11-22T07:07:02.962Z,84.14
2022-11-22T07:08:35.094Z,84.36
2022-11-22T07:10:07.355Z,84.11
2022-11-22T07:11:39.953Z,83.99
2022-11-22T07:13:11.886Z,83.80
2022-11-22T07:14:44.655Z,83.58
2022-11-22T07:16:20.626Z,83.43
2022-11-22T07:17:52.647Z,83.10
2022-11-22T07:19:24.583Z,83.16
2022-11-22T07:21:13.278Z,83.37
2022-11-22T07:22:47.557Z,83.75
2022-11-22T07:24:19.505Z,83.80
2022-11-22T07:25:51.549Z,83.64
2022-11-22T07:27:23.499Z,83.61
2022-11-22T07:28:55.893Z,83.19
2022-11-22T07:30:27.879Z,83.13
2022-11-22T07:31:59.914Z,82.59
2022-11-22T07:33:34.735Z,82.32
2022-11-22T07:35:06.873Z,81.70
2022-11-22T07:36:38.770Z,80.83
2022-11-22T07:38:10.773Z,80.28
2022-11-22T07:39:42.676Z,80.56
2022-11-22T07:41:15.066Z,80.21
2022-11-22T07:42:46.928Z,79.91
2022-11-22T07:44:18.888Z,77.97
2022-11-22T07:45:51.055Z,76.92
2022-11-22T07:47:23.298Z,76.64
2022-11-22T07:48:55.372Z,76.15
2022-11-22T07:50:28.032Z,76.77
2022-11-22T07:52:00.375Z,75.57
2022-11-22T07:53:35.163Z,76.05
2022-11-22T07:55:12.534Z,75.62
2022-11-22T07:56:45.866Z,75.02
2022-11-22T07:58:26.419Z,75.34
2022-11-22T07:59:58.692Z,74.74
2022-11-22T08:01:30.630Z,75.07
2022-11-22T08:03:02.535Z,74.70
2022-11-22T08:04:34.450Z,74.80
2022-11-22T08:06:07.488Z,74.59
2022-11-22T08:07:39.601Z,75.07
2022-11-22T08:09:12.081Z,74.86
2022-11-22T08:10:44.374Z,74.68
2022-11-22T08:12:16.431Z,75.17
2022-11-22T08:13:48.394Z,74.20
2022-11-22T08:15:20.276Z,74.13
2022-11-22T08:16:52.518Z,74.26
2022-11-22T08:18:24.440Z,74.20
2022-11-22T08:19:56.330Z,74.31
2022-11-22T08:21:28.357Z,73.95
2022-11-22T08:23:00.328Z,73.43
2022-11-22T08:24:32.401Z,73.54
2022-11-22T08:26:04.500Z,73.38
2022-11-22T08:27:36.399Z,72.96
2022-11-22T08:29:13.868Z,73.56
2022-11-22T08:30:46.276Z,73.25
2022-11-22T08:32:18.192Z,73.15
2022-11-22T08:33:52.714Z,72.19
2022-11-22T08:35:24.657Z,72.36
2022-11-22T08:36:56.554Z,72.74
2022-11-22T08:38:28.565Z,72.51
2022-11-22T08:40:00.764Z,72.24
2022-11-22T08:41:33.092Z,71.90
2022-11-22T08:43:05.046Z,72.28
2022-11-22T08:44:36.921Z,72.59
2022-11-22T08:46:08.808Z,72.17
2022-11-22T08:47:40.700Z,72.29
2022-11-22T08:49:12.746Z,71.36
2022-11-22T08:50:50.304Z,71.20
2022-11-22T08:52:22.210Z,71.31
2022-11-22T08:53:54.187Z,70.75
2022-11-22T08:55:26.166Z,70.69
2022-11-22T08:56:58.072Z,70.85
2022-11-22T08:58:31.335Z,71.04
2022-11-22T09:00:04.475Z,71.17
2022-11-22T09:01:36.417Z,70.87
2022-11-22T09:03:08.358Z,71.54
2022-11-22T09:04:40.389Z,71.37
2022-11-22T09:08:25.567Z,70.85
2022-11-22T09:09:57.754Z,69.73
2022-11-22T09:11:29.821Z,68.97
2022-11-22T09:13:02.004Z,68.30
2022-11-22T09:14:33.966Z,67.11
2022-11-22T09:16:06.760Z,68.18
2022-11-22T09:17:38.974Z,67.59
2022-11-22T09:19:11.019Z,67.19
2022-11-22T09:20:46.230Z,67.13
2022-11-22T09:22:18.082Z,65.53
2022-11-22T09:23:50.551Z,64.38
2022-11-22T09:25:22.932Z,64.28
2022-11-22T09:26:55.073Z,64.99
2022-11-22T09:28:27.743Z,64.69
2022-11-22T09:29:59.893Z,63.31
2022-11-22T09:31:32.076Z,64.16
2022-11-22T09:33:04.056Z,63.67
2022-11-22T09:34:36.038Z,63.78
2022-11-22T09:36:08.967Z,62.46
2022-11-22T09:37:41.545Z,62.04
2022-11-22T09:39:16.918Z,61.62
2022-11-22T09:40:49.028Z,61.48
2022-11-22T09:42:39.768Z,62.14
2022-11-22T09:44:23.727Z,61.18
2022-11-22T09:45:58.682Z,61.67
2022-11-22T09:47:36.637Z,62.94
2022-11-22T09:49:08.998Z,61.51
2022-11-22T09:51:02.688Z,62.64
2022-11-22T09:52:36.461Z,61.93
2022-11-22T09:54:09.494Z,62.08
2022-11-22T09:55:42.647Z,60.97
2022-11-22T09:58:52.805Z,60.71
2022-11-22T10:00:26.419Z,60.41
2022-11-22T10:02:11.676Z,60.48
2022-11-22T10:03:49.934Z,59.39
2022-11-22T10:05:25.168Z,58.83
2022-11-22T10:06:59.447Z,59.79
2022-11-22T10:08:34.054Z,59.24
2022-11-22T10:10:19.691Z,59.62
2022-11-22T10:11:51.712Z,59.93
2022-11-22T10:13:44.208Z,59.69
2022-11-22T10:15:25.098Z,58.54
2022-11-22T10:17:09.396Z,56.54
2022-11-22T10:18:55.187Z,58.51
2022-11-22T10:20:28.133Z,57.83
2022-11-22T10:21:59.977Z,56.53
2022-11-22T10:23:33.137Z,57.49
2022-11-22T10:25:14.178Z,56.11
2022-11-22T10:26:47.230Z,57.92
2022-11-22T10:28:25.189Z,57.49
2022-11-22T10:29:59.975Z,56.92
2022-11-22T10:31:34.410Z,56.54
2022-11-22T10:33:44.713Z,56.56
2022-11-22T10:35:23.487Z,55.46
2022-11-22T10:36:57.590Z,55.07
2022-11-22T10:38:48.257Z,57.32
2022-11-22T10:40:23.218Z,56.80
2022-11-22T10:43:46.250Z,56.84
2022-11-22T10:45:31.870Z,57.76
2022-11-22T10:47:09.446Z,55.76
2022-11-22T10:48:41.294Z,56.87
2022-11-22T10:50:17.451Z,55.80
2022-11-22T10:51:54.424Z,56.52
2022-11-22T10:53:29.014Z,54.86
2022-11-22T10:55:04.982Z,55.97
2022-11-22T10:56:36.867Z,55.94
2022-11-22T10:58:21.252Z,55.85
2022-11-22T11:00:13.278Z,53.91
2022-11-22T11:02:13.853Z,55.56
2022-11-22T11:03:46.618Z,55.64
2022-11-22T11:05:19.443Z,56.30
2022-11-22T11:09:23.785Z,55.71
2022-11-22T11:10:40.993Z,55.27
2022-11-22T11:12:22.843Z,55.54
2022-11-22T11:13:55.612Z,55.56
2022-11-22T11:15:30.758Z,58.30
2022-11-22T11:17:03.345Z,56.45
2022-11-22T11:18:43.541Z,57.45
2022-11-22T11:20:23.450Z,56.08
2022-11-22T11:22:05.854Z,55.84
2022-11-22T11:23:37.651Z,55.73
2022-11-22T11:25:27.840Z,55.55
2022-11-22T11:26:59.888Z,55.47
2022-11-22T11:28:31.903Z,56.32
2022-11-22T11:30:04.630Z,54.96
2022-11-22T11:32:06.349Z,54.50
2022-11-22T11:33:39.297Z,54.61
2022-11-22T11:35:13.923Z,54.86
2022-11-22T11:36:45.934Z,54.05
2022-11-22T11:38:30.764Z,55.24
2022-11-22T11:40:03.353Z,54.70
2022-11-22T11:41:40.220Z,54.32
2022-11-22T11:43:16.720Z,54.85
2022-11-22T11:44:48.714Z,54.21
2022-11-22T11:46:20.589Z,53.75
2022-11-22T11:47:52.597Z,54.02
2022-11-22T11:49:25.559Z,53.02
2022-11-22T11:51:26.779Z,53.73
2022-11-22T11:53:05.465Z,54.87
2022-11-22T11:54:41.185Z,54.53
2022-11-22T11:56:35.767Z,53.22
2022-11-22T11:58:17.792Z,52.30
2022-11-22T11:59:50.234Z,53.37
2022-11-22T12:01:22.406Z,54.04
2022-11-22T12:03:00.708Z,54.50
2022-11-22T12:04:33.903Z,52.21
2022-11-22T12:06:13.341Z,54.51
2022-11-22T12:07:48.421Z,54.92
2022-11-22T12:09:28.428Z,53.64
2022-11-22T12:11:02.468Z,53.21
2022-11-22T12:12:43.332Z,53.82
2022-11-22T12:14:22.489Z,53.20
2022-11-22T12:15:57.342Z,53.29
2022-11-22T12:17:31.178Z,53.14
2022-11-22T12:19:08.755Z,53.56
2022-11-22T12:22:49.526Z,53.47
2022-11-22T12:26:14.966Z,54.95
2022-11-22T12:27:47.353Z,55.75
2022-11-22T12:29:19.279Z,55.86
2022-11-22T12:30:57.724Z,56.44
2022-11-22T12:32:31.690Z,58.14
2022-11-22T12:34:08.449Z,57.60
2022-11-22T12:35:43.871Z,57.14
2022-11-22T12:37:20.031Z,56.42
2022-11-22T12:38:52.276Z,56.00
2022-11-22T12:40:25.185Z,56.36
2022-11-22T12:42:05.990Z,56.57
2022-11-22T12:43:47.375Z,56.56
2022-11-22T12:45:35.704Z,56.68
2022-11-22T12:47:09.581Z,56.07
2022-11-22T12:48:48.404Z,56.42
2022-11-22T12:50:24.713Z,55.43
2022-11-22T12:51:57.250Z,54.99
2022-11-22T12:53:33.041Z,55.18
2022-11-22T12:55:23.570Z,55.71
2022-11-22T12:56:56.368Z,57.04
2022-11-22T12:58:32.133Z,59.00
2022-11-22T13:00:10.769Z,59.40
2022-11-22T13:01:45.667Z,61.53
2022-11-22T13:03:22.117Z,62.27
2022-11-22T13:04:56.871Z,61.03
2022-11-22T13:06:30.138Z,60.91
2022-11-22T13:08:02.194Z,62.12
2022-11-22T13:09:35.869Z,61.94
2022-11-22T13:11:22.287Z,62.86
2022-11-22T13:12:54.699Z,63.00
2022-11-22T13:14:30.010Z,63.15
2022-11-22T13:16:03.348Z,62.73
2022-11-22T13:17:35.691Z,62.48
2022-11-22T13:19:07.886Z,61.75
2022-11-22T13:20:43.203Z,61.89
2022-11-22T13:22:17.208Z,60.65
2022-11-22T13:23:55.308Z,60.02
2022-11-22T13:27:00.180Z,60.31
2022-11-22T13:28:34.990Z,60.74
2022-11-22T13:30:17.168Z,61.25
2022-11-22T13:32:09.478Z,61.86
2022-11-22T13:33:43.888Z,61.91
2022-11-22T13:35:15.973Z,62.22
2022-11-22T13:36:48.269Z,62.05
2022-11-22T13:38:20.396Z,61.57
2022-11-22T13:39:52.706Z,61.83
2022-11-22T13:41:28.855Z,61.65
2022-11-22T13:43:21.452Z,61.55
2022-11-22T13:44:54.529Z,60.41
2022-11-22T13:46:44.706Z,59.92
2022-11-22T13:48:36.897Z,59.33
2022-11-22T13:50:45.189Z,59.15
2022-11-22T13:52:17.107Z,60.48
2022-11-22T13:53:50.065Z,60.60
2022-11-22T13:57:00.421Z,59.00
2022-11-22T13:58:50.257Z,59.68
2022-11-22T14:00:22.998Z,59.67
2022-11-22T14:01:56.011Z,60.59
2022-11-22T14:03:35.121Z,60.73
2022-11-22T14:05:22.507Z,60.48
2022-11-22T14:07:05.689Z,60.72
2022-11-22T14:08:38.144Z,60.88
2022-11-22T14:10:28.823Z,61.49
2022-11-22T14:12:13.016Z,62.06
2022-11-22T14:13:52.688Z,62.59
2022-11-22T14:15:43.212Z,63.04
2022-11-22T14:17:15.289Z,62.63
2022-11-22T14:18:47.493Z,62.58
2022-11-22T14:20:34.682Z,61.94
2022-11-22T14:22:26.855Z,61.48
2022-11-22T14:24:10.963Z,62.80
2022-11-22T14:25:51.707Z,62.16
2022-11-22T14:27:38.961Z,63.61
2022-11-22T14:29:40.495Z,63.03
2022-11-22T14:31:13.392Z,63.94
2022-11-22T14:32:49.629Z,64.18
2022-11-22T14:34:23.293Z,64.61
2022-11-22T14:36:07.367Z,64.96
2022-11-22T14:37:46.848Z,65.61
2022-11-22T14:39:53.978Z,65.74
2022-11-22T14:41:28.741Z,66.35
2022-11-22T14:43:19.309Z,67.06
2022-11-22T14:44:51.626Z,68.00
2022-11-22T14:46:51.577Z,69.66
2022-11-22T14:48:20.203Z,72.70
2022-11-22T14:49:52.398Z,72.49
2022-11-22T14:51:32.706Z,72.30
2022-11-22T14:53:11.833Z,72.98
2022-11-22T14:54:44.973Z,74.00
2022-11-22T14:56:18.105Z,73.84
2022-11-22T14:57:52.991Z,74.01
2022-11-22T14:59:28.242Z,75.11
2022-11-22T15:01:15.503Z,75.63
2022-11-22T15:03:01.296Z,75.46
2022-11-22T15:09:16.474Z,77.13
2022-11-22T15:09:20.088Z,78.06
2022-11-22T15:09:20.509Z,78.47
2022-11-22T15:11:06.726Z,79.50
2022-11-22T15:12:41.555Z,79.73
2022-11-22T15:14:42.471Z,79.84
2022-11-22T15:57:37.756Z,81.21
2022-11-22T15:59:30.000Z,81.75
2022-11-22T16:01:18.308Z,82.17
2022-11-22T16:02:56.115Z,83.03
2022-11-22T16:04:28.753Z,82.92
2022-11-22T16:06:11.011Z,83.64
2022-11-22T16:07:47.856Z,83.94
2022-11-22T16:09:22.730Z,83.97
2022-11-22T16:10:54.735Z,84.09
2022-11-22T16:12:30.794Z,83.90
2022-11-22T16:14:03.120Z,83.77
2022-11-22T16:15:38.265Z,83.58
2022-11-22T16:17:29.736Z,83.59
2022-11-22T16:19:24.995Z,83.54
2022-11-22T16:21:03.339Z,83.33
2022-11-22T16:22:35.393Z,83.23
2022-11-22T16:24:18.198Z,83.24
2022-11-22T16:25:50.938Z,83.17
2022-11-22T16:27:23.032Z,83.08
2022-11-22T16:28:56.030Z,82.90
2022-11-22T16:30:28.298Z,83.07
2022-11-22T16:32:12.001Z,83.14
2022-11-22T16:33:45.050Z,82.99
2022-11-22T16:35:29.229Z,83.20
2022-11-22T16:37:02.513Z,83.62
2022-11-22T16:38:34.682Z,83.75
2022-11-22T16:40:06.855Z,83.73
2022-11-22T16:41:38.859Z,83.90
2022-11-22T16:43:33.297Z,83.75
2022-11-22T16:45:06.136Z,84.13
2022-11-22T16:46:38.051Z,83.94
2022-11-22T16:48:33.007Z,83.87
2022-11-22T16:50:06.019Z,83.93
2022-11-22T16:51:38.236Z,83.64
2022-11-22T16:53:13.949Z,84.06
2022-11-22T16:54:46.045Z,84.08
2022-11-22T16:56:18.585Z,84.29
2022-11-22T16:57:50.585Z,84.71
2022-11-22T16:59:22.618Z,84.45
2022-11-22T17:00:55.447Z,84.83
2022-11-22T17:02:27.742Z,84.50
2022-11-22T17:04:02.050Z,84.38
2022-11-22T17:05:34.126Z,84.59
2022-11-22T17:07:12.334Z,84.82
2022-11-22T17:08:47.738Z,85.21
2022-11-22T17:10:19.812Z,85.54
2022-11-22T17:11:51.868Z,85.93
2022-11-22T17:13:26.016Z,85.88
2022-11-22T17:14:58.029Z,86.28
2022-11-22T17:16:30.147Z,86.04
2022-11-22T17:18:02.243Z,86.25
2022-11-22T17:21:37.036Z,86.11
2022-11-22T17:23:14.151Z,86.12
2022-11-22T17:24:48.537Z,86.02
2022-11-22T17:26:20.478Z,85.89
2022-11-22T17:27:54.588Z,85.62
2022-11-22T17:29:49.382Z,86.02
2022-11-22T17:31:19.542Z,86.02
2022-11-22T17:32:51.656Z,85.79
2022-11-22T17:34:23.690Z,85.97
2022-11-22T17:35:55.789Z,86.01
2022-11-22T17:37:29.990Z,85.69
2022-11-22T17:39:04.195Z,85.55
2022-11-22T17:40:36.532Z,85.66
2022-11-22T17:42:08.654Z,85.53
2022-11-22T17:43:40.807Z,85.33
2022-11-22T17:45:12.871Z,85.59
2022-11-22T17:46:44.976Z,85.44
2022-11-22T17:48:18.780Z,85.36
2022-11-22T17:49:50.974Z,85.22
2022-11-22T17:51:22.865Z,85.36
2022-11-22T17:52:54.882Z,85.55
2022-11-22T17:54:26.796Z,85.70
2022-11-22T17:56:14.463Z,85.63
2022-11-22T17:57:48.585Z,85.82
2022-11-22T17:59:23.821Z,85.76
2022-11-22T18:01:12.339Z,85.29
2022-11-22T18:02:44.488Z,85.07
2022-11-22T18:04:17.874Z,85.00
2022-11-22T18:05:49.913Z,85.17
2022-11-22T18:07:24.705Z,85.14
2022-11-22T18:08:56.713Z,85.38
2022-11-22T18:10:28.778Z,85.59
2022-11-22T18:12:00.870Z,85.34
2022-11-22T18:13:34.711Z,85.35
2022-11-22T18:15:07.270Z,85.13
2022-11-22T18:16:39.548Z,85.54
2022-11-22T18:18:27.253Z,85.39
2022-11-22T18:20:04.793Z,85.56
2022-11-22T18:21:38.549Z,85.68
2022-11-22T18:23:10.707Z,85.71
2022-11-22T18:24:43.087Z,85.55
2022-11-22T18:28:07.538Z,84.80
2022-11-22T18:29:42.872Z,84.68
2022-11-22T18:31:15.271Z,85.08
2022-11-22T18:32:47.325Z,85.27
2022-11-22T18:34:19.434Z,85.17
2022-11-22T18:36:04.932Z,85.29
2022-11-22T18:39:09.109Z,85.68
2022-11-22T18:40:47.387Z,85.87
2022-11-22T18:42:19.670Z,85.58
2022-11-22T18:43:51.532Z,85.78
2022-11-22T18:45:25.849Z,86.20
2022-11-22T18:46:58.667Z,85.88
2022-11-22T18:48:31.015Z,85.96
2022-11-22T18:50:03.125Z,85.82
2022-11-22T18:51:35.675Z,86.10
2022-11-22T18:53:08.070Z,85.94
2022-11-22T18:54:39.992Z,86.25
2022-11-22T18:56:12.793Z,85.96
2022-11-22T18:57:45.171Z,86.30
2022-11-22T18:59:17.352Z,86.20
2022-11-22T19:00:49.449Z,86.19
2022-11-22T19:02:26.233Z,86.25
2022-11-22T19:03:58.730Z,86.46
2022-11-22T19:05:30.918Z,86.54
2022-11-22T19:08:38.896Z,86.67
2022-11-22T19:10:11.104Z,86.62
2022-11-22T19:11:43.317Z,86.62
2022-11-22T19:13:15.371Z,86.54
2022-11-22T19:14:47.378Z,86.85
2022-11-22T19:16:21.580Z,86.88
2022-11-22T19:17:53.597Z,86.73
2022-11-22T19:19:25.758Z,86.85
2022-11-22T19:20:57.874Z,86.65
2022-11-22T19:22:31.170Z,87.02
2022-11-22T19:24:03.235Z,86.91
2022-11-22T19:25:37.642Z,86.94
2022-11-22T19:27:09.931Z,86.76
2022-11-22T19:28:42.322Z,86.84
2022-11-22T19:30:14.627Z,87.06
2022-11-22T19:31:47.184Z,86.97
2022-11-22T19:33:19.715Z,87.03
2022-11-22T19:34:52.026Z,86.98
2022-11-22T19:36:30.725Z,87.17
2022-11-22T19:38:04.301Z,86.72
2022-11-22T19:39:36.140Z,86.75
2022-11-22T19:41:09.182Z,86.99
2022-11-22T19:42:41.259Z,87.10
2022-11-22T19:44:13.157Z,87.00
2022-11-22T19:45:45.411Z,87.11
2022-11-22T19:47:18.450Z,86.94
2022-11-22T19:48:51.515Z,86.98
2022-11-22T19:50:23.648Z,87.02
2022-11-22T19:51:55.857Z,87.13
2022-11-22T19:53:27.723Z,87.18
2022-11-22T19:54:59.690Z,87.28
2022-11-22T19:56:32.729Z,87.48
2022-11-22T19:58:04.938Z,87.59
2022-11-22T19:59:37.573Z,87.69
2022-11-22T20:01:10.848Z,87.87
2022-11-22T20:02:42.986Z,87.70
2022-11-22T20:04:14.928Z,87.54
2022-11-22T20:05:46.921Z,87.44
2022-11-22T20:07:19.180Z,87.60
2022-11-22T20:08:51.148Z,87.85
2022-11-22T20:10:23.003Z,87.89
2022-11-22T20:11:54.997Z,87.72
2022-11-22T20:13:26.921Z,87.83
2022-11-22T20:14:59.503Z,87.83
2022-11-22T20:16:32.040Z,87.78
2022-11-22T20:18:04.052Z,87.86
2022-11-22T20:19:38.267Z,87.84
2022-11-22T20:21:10.969Z,87.76
2022-11-22T20:24:22.404Z,88.02
2022-11-22T20:25:54.285Z,88.06
2022-11-22T20:27:26.434Z,88.00
2022-11-22T20:28:59.557Z,88.03
2022-11-22T20:30:31.620Z,88.12
2022-11-22T20:32:03.627Z,88.37
2022-11-22T20:33:35.870Z,88.48
2022-11-22T20:35:08.180Z,88.32
2022-11-22T20:36:40.110Z,88.54
2022-11-22T20:38:13.791Z,88.80
2022-11-22T20:39:45.724Z,88.52
2022-11-22T20:41:18.524Z,88.96
2022-11-22T20:42:50.484Z,88.90
2022-11-22T20:44:25.725Z,88.62
2022-11-22T20:46:01.804Z,88.73
2022-11-22T20:47:33.736Z,88.57
2022-11-22T20:49:05.749Z,88.70
2022-11-22T20:50:37.762Z,88.40
2022-11-22T20:53:43.119Z,88.28
2022-11-22T20:55:15.118Z,88.33
2022-11-22T20:56:47.683Z,88.14
2022-11-22T20:58:19.808Z,88.17
2022-11-22T20:59:52.650Z,88.21
2022-11-22T21:01:25.734Z,88.31
2022-11-22T21:02:57.672Z,87.92
2022-11-22T21:04:30.131Z,88.10
2022-11-22T21:06:02.582Z,88.09
2022-11-22T21:07:35.321Z,87.71
2022-11-22T21:09:07.427Z,87.71
2022-11-22T21:10:39.349Z,87.91
2022-11-22T21:12:11.455Z,87.87
2022-11-22T21:13:43.515Z,87.63
2022-11-22T21:15:19.293Z,87.61
2022-11-22T21:16:51.171Z,87.76
2022-11-22T21:18:25.583Z,87.74
2022-11-22T21:19:57.773Z,87.74
2022-11-22T21:21:30.181Z,87.45
2022-11-22T21:23:02.214Z,87.55
2022-11-22T21:24:34.103Z,87.71
2022-11-22T21:26:06.662Z,87.96
2022-11-22T21:27:38.566Z,88.03
2022-11-22T21:29:16.478Z,88.01
2022-11-22T21:30:52.627Z,87.75
2022-11-22T21:32:24.759Z,87.93
2022-11-22T21:33:56.756Z,88.12
2022-11-22T21:35:28.606Z,88.18
2022-11-22T21:38:33.568Z,87.91
2022-11-22T21:40:07.298Z,87.90
2022-11-22T21:41:40.619Z,87.94
2022-11-22T21:43:13.005Z,87.44
2022-11-22T21:44:44.919Z,87.28
2022-11-22T21:46:18.632Z,87.15
2022-11-22T21:47:51.026Z,87.15
2022-11-22T21:49:22.896Z,87.36
2022-11-22T21:50:55.855Z,87.02
2022-11-22T21:52:27.770Z,87.10
2022-11-22T21:54:00.319Z,87.30
2022-11-22T21:55:32.313Z,87.14
2022-11-22T21:57:06.649Z,86.90
2022-11-22T21:58:38.471Z,86.71
2022-11-22T22:00:10.726Z,86.64
2022-11-22T22:01:42.733Z,86.76
2022-11-22T22:03:14.673Z,86.82
2022-11-22T22:04:46.612Z,87.05
2022-11-22T22:06:18.843Z,87.33
2022-11-22T22:07:52.996Z,87.17
2022-11-22T22:09:25.190Z,87.19
2022-11-22T22:10:59.918Z,87.34
2022-11-22T22:12:31.906Z,87.24
2022-11-22T22:14:03.757Z,87.35
2022-11-22T22:15:35.594Z,87.36
2022-11-22T22:17:07.395Z,87.21